Time;durP1;ratioP1;P1;durP2;ratioP2;P2;SDS_P1;SDS_P2;PMS_P1;PMS_P2;Temp;Humidity;BMP_temperature;BMP_pressure;BME280_temperature;BME280_humidity;BME280_pressure;Samples;Min_cycle;Max_cycle;Signal;HPM_P1;HPM_P2
2022/12/22 03:26:29;;;;;;;3.45;1.15;;;16.00;1.00;;;;;;5052057;28;20044;-38
2022/12/22 03:28:55;;;;;;;2.83;1.55;;;16.00;1.00;;;;;;5052161;28;20068;-38
2022/12/22 03:31:22;;;;;;;3.70;0.93;;;16.00;1.00;;;;;;5052089;28;20049;-38
2022/12/22 03:33:49;;;;;;;3.63;1.35;;;16.00;1.00;;;;;;5051736;28;20136;-38
2022/12/22 03:36:16;;;;;;;2.08;1.00;;;16.00;1.00;;;;;;5051962;28;20552;-39
2022/12/22 03:38:43;;;;;;;3.95;1.30;;;16.00;1.00;;;;;;5051892;28;20471;-39
2022/12/22 03:46:28;;;;;;;2.03;1.02;;;16.00;1.00;;;;;;5051847;28;20515;-39
2022/12/22 03:46:41;;;;;;;3.88;1.10;;;15.90;1.00;;;;;;5051045;28;20099;-39
2022/12/22 03:49:11;;;;;;;2.85;1.10;;;15.90;1.00;;;;;;5051875;28;20130;-39
2022/12/22 03:51:39;;;;;;;2.42;1.08;;;15.90;1.00;;;;;;5051654;28;20055;-39
2022/12/22 03:54:07;;;;;;;1.85;1.25;;;15.90;1.00;;;;;;5051619;28;20045;-39
2022/12/22 03:56:34;;;;;;;3.28;1.33;;;15.90;1.00;;;;;;5051753;28;20055;-38
2022/12/22 03:59:01;;;;;;;2.53;1.25;;;15.90;1.00;;;;;;5051707;28;20068;-39
2022/12/22 04:01:28;;;;;;;2.75;0.82;;;15.90;1.00;;;;;;5051695;28;20099;-38
2022/12/22 04:03:55;;;;;;;2.45;1.40;;;15.90;1.00;;;;;;5051328;28;20068;-39
2022/12/22 04:06:22;;;;;;;1.58;1.02;;;15.90;1.00;;;;;;5051574;28;20092;-39
2022/12/22 04:08:49;;;;;;;2.53;1.58;;;15.90;1.00;;;;;;5063409;28;20051;-38
2022/12/22 04:14:03;;;;;;;2.55;1.27;;;15.80;1.00;;;;;;5071388;28;20082;-39
2022/12/22 04:16:30;;;;;;;1.58;1.05;;;15.80;1.00;;;;;;5071615;28;20076;-38
2022/12/22 04:18:57;;;;;;;2.05;1.10;;;15.80;1.00;;;;;;5071595;28;20049;-38
2022/12/22 04:21:24;;;;;;;2.97;1.13;;;15.80;1.00;;;;;;5071548;28;20119;-39
2022/12/22 04:23:51;;;;;;;2.85;1.10;;;15.80;1.00;;;;;;5071232;28;20047;-39
2022/12/22 04:26:19;;;;;;;2.08;1.25;;;15.80;1.00;;;;;;5071445;28;20048;-38
2022/12/22 04:28:46;;;;;;;2.80;1.27;;;15.70;1.00;;;;;;5071445;28;20037;-38
2022/12/22 04:31:13;;;;;;;6.00;1.67;;;15.70;1.00;;;;;;5071456;28;20111;-38
2022/12/22 04:33:40;;;;;;;3.80;1.25;;;15.70;1.00;;;;;;5071210;28;20055;-38
2022/12/22 04:36:07;;;;;;;2.63;1.25;;;15.70;1.00;;;;;;5071524;28;20041;-39
2022/12/22 04:38:34;;;;;;;2.95;1.25;;;15.70;1.00;;;;;;5071470;28;20060;-39
2022/12/22 04:41:01;;;;;;;1.90;1.10;;;15.70;1.00;;;;;;5071439;28;20178;-39
2022/12/22 04:43:28;;;;;;;1.40;0.80;;;15.70;1.00;;;;;;5070949;28;20049;-38
2022/12/22 04:45:56;;;;;;;2.22;0.93;;;15.70;1.00;;;;;;5071412;28;20060;-38
2022/12/22 04:48:24;;;;;;;1.30;0.70;;;15.70;1.00;;;;;;5071268;28;20041;-38
2022/12/22 04:50:53;;;;;;;2.78;1.33;;;15.70;1.00;;;;;;5071331;28;20040;-38
2022/12/22 04:53:21;;;;;;;4.28;1.40;;;15.60;1.00;;;;;;5076136;22;20500;-36
2022/12/22 04:55:50;;;;;;;3.42;1.48;;;15.60;1.00;;;;;;5064667;28;20045;-36
2022/12/22 04:58:17;;;;;;;2.33;1.17;;;15.60;1.00;;;;;;5072708;28;20051;-36
2022/12/22 05:00:44;;;;;;;1.35;0.88;;;15.60;1.00;;;;;;5074902;28;20037;-37
2022/12/22 05:03:11;;;;;;;2.15;0.85;;;15.60;1.00;;;;;;5074705;28;20037;-36
2022/12/22 05:05:37;;;;;;;1.35;0.70;;;15.60;1.00;;;;;;5074853;28;20036;-36
2022/12/22 05:08:05;;;;;;;1.90;1.20;;;15.60;1.00;;;;;;5074866;28;20048;-36
2022/12/22 05:10:32;;;;;;;2.13;1.02;;;15.60;1.00;;;;;;5074587;28;20117;-36
2022/12/22 05:12:59;;;;;;;1.73;1.45;;;15.60;1.00;;;;;;5055183;28;20037;-36
2022/12/22 05:15:28;;;;;;;1.50;1.00;;;15.60;1.00;;;;;;5064979;28;20040;-36
2022/12/22 05:17:55;;;;;;;1.75;0.80;;;15.50;1.00;;;;;;5066319;28;20087;-36
2022/12/22 05:20:22;;;;;;;2.80;0.93;;;15.50;1.00;;;;;;5074564;28;20128;-35
2022/12/22 05:22:50;;;;;;;1.92;0.90;;;15.50;1.00;;;;;;5074265;28;20059;-36
2022/12/22 05:25:18;;;;;;;2.85;0.98;;;15.50;1.00;;;;;;5074421;28;20090;-36
2022/12/22 05:27:47;;;;;;;6.05;1.00;;;15.50;1.00;;;;;;5074466;28;20044;-35
2022/12/22 05:30:15;;;;;;;3.55;1.42;;;15.50;1.00;;;;;;5074348;28;20119;-35
2022/12/22 05:32:42;;;;;;;10.90;1.30;;;15.50;1.00;;;;;;5074102;28;20032;-35
2022/12/22 05:35:09;;;;;;;4.00;1.70;;;15.40;1.00;;;;;;5074224;28;20063;-36
2022/12/22 05:37:36;;;;;;;3.60;1.13;;;15.40;1.00;;;;;;5074298;28;20467;-35
2022/12/22 05:40:04;;;;;;;2.15;0.90;;;15.40;1.00;;;;;;5074184;28;20040;-36
2022/12/22 05:42:36;;;;;;;2.25;1.30;;;15.40;1.00;;;;;;5074086;28;20467;-35
2022/12/22 05:45:06;;;;;;;3.38;1.02;;;15.40;1.00;;;;;;5074266;28;20040;-35
2022/12/22 05:47:33;;;;;;;4.75;0.95;;;15.40;1.00;;;;;;5074070;28;20029;-35
2022/12/22 05:50:00;;;;;;;4.55;1.95;;;15.40;1.00;;;;;;5073994;28;20095;-35
2022/12/22 05:52:27;;;;;;;2.35;1.05;;;15.40;1.00;;;;;;5073788;28;20041;-35
2022/12/22 05:54:54;;;;;;;2.25;0.88;;;15.40;1.00;;;;;;5073719;28;20062;-36
2022/12/22 05:57:21;;;;;;;7.03;0.90;;;15.40;1.00;;;;;;5073991;28;20109;-36
2022/12/22 05:59:47;;;;;;;2.58;0.95;;;15.40;1.00;;;;;;5074013;28;20041;-35
2022/12/22 06:02:14;;;;;;;2.67;1.00;;;15.40;1.00;;;;;;5073670;28;20086;-35
2022/12/22 06:04:41;;;;;;;2.42;1.00;;;15.40;1.00;;;;;;5073123;28;20045;-36
2022/12/22 06:07:08;;;;;;;7.70;1.33;;;15.30;1.00;;;;;;5073576;28;20042;-36
2022/12/22 06:09:35;;;;;;;5.22;1.15;;;15.30;1.00;;;;;;5073194;28;20040;-36
2022/12/22 06:12:02;;;;;;;2.55;1.05;;;15.30;1.00;;;;;;5073476;28;20047;-36
2022/12/22 06:14:29;;;;;;;1.88;0.77;;;15.30;1.00;;;;;;5073416;28;20407;-35
2022/12/22 06:16:56;;;;;;;1.45;0.98;;;15.30;1.00;;;;;;5073525;28;20044;-36
2022/12/22 06:19:22;;;;;;;5.75;1.45;;;15.30;1.00;;;;;;5073570;28;20045;-36
2022/12/22 06:21:49;;;;;;;3.55;1.10;;;15.30;1.00;;;;;;5073602;28;20459;-36
2022/12/22 06:24:16;;;;;;;4.00;1.02;;;15.30;1.00;;;;;;5073110;28;20114;-36
2022/12/22 06:26:42;;;;;;;4.28;1.23;;;15.30;1.00;;;;;;5073227;28;20044;-36
2022/12/22 06:29:09;;;;;;;2.95;0.85;;;15.30;1.00;;;;;;5073120;28;20400;-36
2022/12/22 06:31:36;;;;;;;3.22;0.50;;;15.20;1.00;;;;;;5073054;28;20045;-36
2022/12/22 06:34:03;;;;;;;2.33;0.73;;;15.20;1.00;;;;;;5072962;28;20045;-36
2022/12/22 06:36:29;;;;;;;4.38;0.65;;;15.20;1.00;;;;;;5073207;28;20041;-36
2022/12/22 06:38:56;;;;;;;2.17;0.60;;;15.20;1.00;;;;;;5073184;28;20044;-36
2022/12/22 06:44:08;;;;;;;4.95;0.90;;;15.20;1.00;;;;;;5072756;28;20123;-36
2022/12/22 06:46:35;;;;;;;2.28;0.88;;;15.20;1.00;;;;;;5072983;28;20064;-36
2022/12/22 06:49:05;;;;;;;2.00;0.80;;;15.20;1.00;;;;;;5072923;28;20041;-40
2022/12/22 06:51:32;;;;;;;3.80;1.23;;;15.20;1.00;;;;;;5072813;28;20040;-36
2022/12/22 06:53:58;;;;;;;3.28;0.73;;;15.20;1.00;;;;;;5072499;28;20041;-36
2022/12/22 06:56:25;;;;;;;2.63;0.63;;;15.20;1.00;;;;;;5072829;28;20041;-36
2022/12/22 06:58:52;;;;;;;2.33;0.63;;;15.20;1.00;;;;;;5054962;28;20044;-35
2022/12/22 07:01:18;;;;;;;2.63;0.98;;;15.10;1.00;;;;;;5072691;28;20076;-35
2022/12/22 07:03:45;;;;;;;6.57;1.35;;;15.10;1.00;;;;;;5072357;28;20450;-35
2022/12/22 07:06:12;;;;;;;4.25;0.57;;;15.10;1.00;;;;;;5072456;28;20055;-36
2022/12/22 07:08:39;;;;;;;2.70;0.50;;;15.10;1.00;;;;;;5054722;28;20048;-36
2022/12/22 07:11:06;;;;;;;1.85;0.60;;;15.10;1.00;;;;;;5072467;28;20036;-35
2022/12/22 07:13:34;;;;;;;2.90;0.47;;;15.10;1.00;;;;;;5072128;28;20050;-36
2022/12/22 07:16:02;;;;;;;2.03;0.60;;;15.10;1.00;;;;;;5072387;28;20075;-36
2022/12/22 07:18:31;;;;;;;1.08;0.50;;;15.10;1.00;;;;;;5054497;28;20045;-35
2022/12/22 07:20:59;;;;;;;3.97;0.60;;;15.10;1.00;;;;;;5072230;28;20052;-42
2022/12/22 07:23:27;;;;;;;4.32;1.00;;;15.10;1.00;;;;;;5071967;28;20055;-36
2022/12/22 07:25:54;;;;;;;1.95;0.63;;;15.10;1.00;;;;;;5072201;28;20114;-36
2022/12/22 07:28:21;;;;;;;1.83;0.47;;;15.10;1.00;;;;;;5072276;28;20048;-36
2022/12/22 07:30:49;;;;;;;1.50;0.57;;;15.00;1.00;;;;;;5072190;28;20051;-36
2022/12/22 07:33:16;;;;;;;4.88;1.35;;;15.10;1.00;;;;;;5071878;28;20047;-36
2022/12/22 07:35:44;;;;;;;0.90;0.43;;;15.00;1.00;;;;;;5072010;28;20044;-36
2022/12/22 07:38:11;;;;;;;3.83;1.10;;;15.00;1.00;;;;;;5072091;28;20052;-36
2022/12/22 07:40:38;;;;;;;1.35;0.52;;;15.00;1.00;;;;;;5054010;28;20419;-35
2022/12/22 07:43:08;;;;;;;4.18;0.80;;;15.00;1.00;;;;;;5071689;28;20563;-36
2022/12/22 07:45:35;;;;;;;3.72;1.27;;;15.00;1.00;;;;;;5053947;28;20458;-36
2022/12/22 07:50:23;;;;;;;3.60;0.75;;;15.00;1.00;;;;;;5071746;28;20120;-36
2022/12/22 07:50:49;;;;;;;3.17;0.75;;;15.00;1.00;;;;;;5071073;28;20043;-36
2022/12/22 07:53:16;;;;;;;1.90;0.55;;;14.90;1.00;;;;;;5068038;28;20044;-36
2022/12/22 07:55:43;;;;;;;1.73;0.63;;;14.90;1.00;;;;;;5066855;28;20071;-36
2022/12/22 07:58:09;;;;;;;2.55;1.13;;;14.90;1.00;;;;;;5068150;28;20552;-36
2022/12/22 08:00:36;;;;;;;1.95;0.77;;;14.90;1.00;;;;;;5048150;28;20048;-35
2022/12/22 08:03:03;;;;;;;1.80;0.60;;;14.90;1.00;;;;;;5064864;28;20075;-35
2022/12/22 08:05:30;;;;;;;3.42;0.70;;;14.90;1.00;;;;;;5071032;28;20044;-36
2022/12/22 08:07:56;;;;;;;2.20;0.70;;;14.90;1.00;;;;;;5053821;28;20060;-35
2022/12/22 08:10:23;;;;;;;2.88;0.95;;;14.90;1.00;;;;;;5053618;28;20143;-36
2022/12/22 08:12:50;;;;;;;1.98;0.75;;;14.90;1.00;;;;;;5071352;28;20474;-36
2022/12/22 08:15:17;;;;;;;1.98;0.80;;;14.90;1.00;;;;;;5053629;28;20045;-36
2022/12/22 08:17:43;;;;;;;1.45;0.75;;;14.90;1.00;;;;;;5071716;28;20132;-36
2022/12/22 08:20:10;;;;;;;4.05;0.80;;;14.90;1.00;;;;;;5071508;28;20114;-35
2022/12/22 08:22:37;;;;;;;4.75;0.60;;;14.90;1.00;;;;;;5071304;28;20071;-36
2022/12/22 08:25:04;;;;;;;3.55;0.73;;;14.90;1.00;;;;;;5071460;28;20102;-35
2022/12/22 08:27:39;;;;;;;1.25;0.73;;;14.90;1.00;;;;;;5071549;28;20128;-35
2022/12/22 08:30:07;;;;;;;1.90;0.77;;;14.90;1.00;;;;;;5071469;28;20044;-35
2022/12/22 08:32:36;;;;;;;6.38;0.90;;;14.90;1.00;;;;;;5071566;28;20043;-36
2022/12/22 08:35:04;;;;;;;2.30;0.88;;;14.80;1.00;;;;;;5075336;28;20082;-36
2022/12/22 08:37:39;;;;;;;2.13;0.50;;;14.80;1.00;;;;;;5075510;28;20135;-36
2022/12/22 08:40:11;;;;;;;3.67;1.00;;;14.80;1.00;;;;;;5075326;28;20119;-36
2022/12/22 08:42:39;;;;;;;2.17;1.10;;;14.80;1.00;;;;;;5074969;28;20040;-36
2022/12/22 08:45:08;;;;;;;2.38;0.90;;;14.80;1.00;;;;;;5057072;28;20495;-34
2022/12/22 08:47:35;;;;;;;2.38;1.70;;;14.80;1.00;;;;;;5057432;28;20063;-35
2022/12/22 08:50:03;;;;;;;3.55;0.63;;;14.80;1.00;;;;;;5075008;28;20074;-35
2022/12/22 08:52:30;;;;;;;3.88;0.73;;;14.80;1.00;;;;;;5074794;28;20098;-35
2022/12/22 08:54:57;;;;;;;2.70;0.40;;;14.80;1.00;;;;;;5074856;28;20162;-35
2022/12/22 08:57:24;;;;;;;1.73;0.47;;;14.80;1.00;;;;;;5074968;28;20041;-36
2022/12/22 08:59:50;;;;;;;1.40;0.47;;;14.80;1.00;;;;;;5074881;28;20052;-36
2022/12/22 09:02:17;;;;;;;2.65;0.98;;;14.80;1.00;;;;;;5074841;28;20522;-36
2022/12/22 09:04:44;;;;;;;3.25;0.88;;;14.80;1.00;;;;;;5074658;28;20123;-36
2022/12/22 09:07:11;;;;;;;2.42;0.55;;;14.80;1.00;;;;;;5057051;28;20048;-36
2022/12/22 09:09:38;;;;;;;1.13;0.52;;;14.80;1.00;;;;;;5074726;28;20124;-35
2022/12/22 09:12:05;;;;;;;2.45;0.55;;;14.80;1.00;;;;;;5074681;28;20471;-36
2022/12/22 09:14:32;;;;;;;1.98;0.68;;;14.80;1.00;;;;;;5074314;28;20041;-36
2022/12/22 09:16:59;;;;;;;2.88;0.63;;;14.70;1.00;;;;;;5074717;28;20041;-36
2022/12/22 09:19:26;;;;;;;2.30;0.82;;;14.70;1.00;;;;;;5074544;28;20049;-37
2022/12/22 09:21:53;;;;;;;2.97;0.70;;;14.80;1.00;;;;;;5074510;28;20048;-36
2022/12/22 09:24:20;;;;;;;2.10;0.60;;;14.70;1.00;;;;;;5074159;28;20052;-35
2022/12/22 09:26:47;;;;;;;1.73;0.57;;;14.70;1.00;;;;;;5074439;28;20041;-35
2022/12/22 09:29:14;;;;;;;2.00;1.00;;;14.70;1.00;;;;;;5074344;28;20400;-36
2022/12/22 09:31:42;;;;;;;4.68;0.50;;;14.70;1.00;;;;;;5074233;28;20040;-36
2022/12/22 09:34:09;;;;;;;3.72;0.77;;;14.70;1.00;;;;;;5073945;28;20037;-36
2022/12/22 09:36:43;;;;;;;1.52;0.45;;;14.70;1.00;;;;;;5074336;28;20056;-35
2022/12/22 09:39:10;;;;;;;1.20;0.60;;;14.70;1.00;;;;;;5074042;28;20040;-36
2022/12/22 09:41:49;;;;;;;3.75;0.70;;;14.70;1.00;;;;;;5074171;28;20055;-36
2022/12/22 09:44:19;;;;;;;2.75;0.50;;;14.70;1.00;;;;;;5072863;28;20099;-36
2022/12/22 09:46:46;;;;;;;2.35;1.05;;;14.70;1.00;;;;;;5056243;28;20450;-36
2022/12/22 09:49:15;;;;;;;3.30;0.60;;;14.70;1.00;;;;;;5073897;28;20127;-36
2022/12/22 09:51:48;;;;;;;1.90;0.40;;;14.70;1.00;;;;;;5073801;28;20048;-36
2022/12/22 09:54:15;;;;;;;2.05;0.50;;;14.70;1.00;;;;;;5073608;28;20406;-36
2022/12/22 09:56:42;;;;;;;2.58;0.47;;;14.70;1.00;;;;;;5073943;28;20626;-36
2022/12/22 09:59:15;;;;;;;2.03;0.68;;;14.70;1.00;;;;;;5055854;28;20567;-36
2022/12/22 10:02:17;;;;;;;2.05;0.40;;;14.70;1.00;;;;;;5073981;28;20043;-37
2022/12/22 10:05:17;;;;;;;2.42;0.50;;;14.70;1.00;;;;;;5070058;28;20060;-36
2022/12/22 10:07:44;;;;;;;1.70;0.60;;;14.70;1.00;;;;;;5073744;28;20474;-36
2022/12/22 10:10:23;;;;;;;1.35;0.55;;;14.80;1.00;;;;;;5073628;28;20047;-36
2022/12/22 10:12:53;;;;;;;2.75;0.70;;;14.80;1.00;;;;;;5073378;28;20045;-37
2022/12/22 10:15:20;;;;;;;1.92;0.40;;;14.80;1.00;;;;;;5073518;28;20056;-34
2022/12/22 10:18:07;;;;;;;1.65;0.45;;;14.80;1.00;;;;;;5073588;28;20095;-37
2022/12/22 10:20:37;;;;;;;3.10;0.55;;;14.80;1.00;;;;;;5055479;28;20040;-36
2022/12/22 10:23:26;;;;;;;3.03;0.50;;;14.80;1.00;;;;;;5072970;28;20525;-36
2022/12/22 10:25:56;;;;;;;1.95;1.15;;;14.80;1.00;;;;;;5055409;28;20094;-36
2022/12/22 10:28:45;;;;;;;3.45;1.92;;;14.80;1.00;;;;;;5073196;28;20040;-35
2022/12/22 10:31:20;;;;;;;1.33;0.82;;;14.80;1.00;;;;;;5073261;28;20051;-36
2022/12/22 10:33:50;;;;;;;3.60;0.85;;;14.90;1.00;;;;;;5072794;28;20041;-36
2022/12/22 10:36:36;;;;;;;1.85;0.77;;;14.90;1.00;;;;;;5073439;28;20098;-37
2022/12/22 10:39:09;;;;;;;3.22;0.63;;;14.90;1.00;;;;;;5073088;28;20097;-36
2022/12/22 10:41:47;;;;;;;2.45;0.90;;;14.90;1.00;;;;;;5072982;28;20055;-36
2022/12/22 10:44:19;;;;;;;2.15;0.60;;;14.90;1.00;;;;;;5072613;28;20045;-36
2022/12/22 10:46:49;;;;;;;4.80;0.85;;;14.90;1.00;;;;;;5072927;28;20166;-36
2022/12/22 10:49:23;;;;;;;4.15;0.52;;;14.90;1.00;;;;;;5055314;28;20045;-36
2022/12/22 10:51:56;;;;;;;3.40;0.68;;;14.90;1.00;;;;;;5054971;28;20056;-37
2022/12/22 10:54:25;;;;;;;2.53;0.50;;;14.90;1.00;;;;;;5072423;28;20131;-37
2022/12/22 10:57:03;;;;;;;2.45;0.75;;;15.00;1.00;;;;;;5054612;28;20564;-36
2022/12/22 10:59:31;;;;;;;5.03;1.08;;;14.90;1.00;;;;;;5072556;28;20045;-36
2022/12/22 11:02:37;;;;;;;2.88;0.90;;;14.90;1.00;;;;;;5072577;28;20045;-36
2022/12/22 11:05:10;;;;;;;2.17;0.60;;;15.00;1.00;;;;;;4990985;28;20054;-35
2022/12/22 11:07:40;;;;;;;4.17;0.50;;;15.00;1.00;;;;;;4991148;28;20057;-35
2022/12/22 11:10:17;;;;;;;4.18;0.93;;;15.00;1.00;;;;;;5035700;28;20393;-36
2022/12/22 11:13:01;;;;;;;4.97;1.05;;;15.00;1.00;;;;;;5064093;22;20072;-31
2022/12/22 11:15:49;;;;;;;1.77;0.70;;;15.00;1.00;;;;;;5063972;28;20506;-31
2022/12/22 11:18:19;;;;;;;4.97;0.38;;;15.00;1.00;;;;;;5072386;28;20069;-31
2022/12/22 11:21:00;;;;;;;3.00;0.43;;;15.00;1.00;;;;;;5072190;28;20041;-31
2022/12/22 11:23:51;;;;;;;1.17;0.40;;;15.00;1.00;;;;;;5071831;28;20052;-31
2022/12/22 11:26:47;;;;;;;2.83;0.80;;;15.00;1.00;;;;;;5072285;28;20094;-31
2022/12/22 11:29:31;;;;;;;3.80;0.63;;;15.00;1.00;;;;;;5071890;28;20037;-31
2022/12/22 11:32:08;;;;;;;3.13;0.80;;;15.00;1.00;;;;;;5072171;28;20036;-31
2022/12/22 11:34:47;;;;;;;0.95;0.40;;;15.00;1.00;;;;;;5071792;28;20094;-31
2022/12/22 11:37:33;;;;;;;2.40;0.28;;;15.00;1.00;;;;;;5072039;28;20064;-37
2022/12/22 11:40:28;;;;;;;3.90;0.55;;;15.10;1.00;;;;;;5072077;28;20045;-35
2022/12/22 11:43:21;;;;;;;6.47;0.52;;;15.00;1.00;;;;;;5040055;28;20044;-37
2022/12/22 11:45:51;;;;;;;1.92;0.50;;;15.10;1.00;;;;;;5058430;28;20090;-37
2022/12/22 11:49:07;;;;;;;2.55;1.20;;;15.10;1.00;;;;;;5071817;28;20056;-36
2022/12/22 11:51:50;;;;;;;3.53;1.30;;;15.00;1.00;;;;;;5011881;28;20056;-36
2022/12/22 11:54:43;;;;;;;4.63;0.85;;;15.10;1.00;;;;;;5071488;28;20552;-33
2022/12/22 11:57:28;;;;;;;3.83;0.93;;;15.10;1.00;;;;;;5071896;28;20040;-36
2022/12/22 12:00:11;;;;;;;3.60;0.88;;;15.10;1.00;;;;;;5071529;28;20499;-34
2022/12/22 12:02:57;;;;;;;3.00;0.63;;;15.10;1.00;;;;;;5053759;28;20048;-33
2022/12/22 12:05:24;;;;;;;4.25;0.88;;;15.10;1.00;;;;;;5071699;28;20049;-35
2022/12/22 12:07:56;;;;;;;2.78;0.88;;;15.10;1.00;;;;;;5071086;28;20048;-34
2022/12/22 12:10:27;;;;;;;1.35;0.60;;;15.10;1.00;;;;;;5053834;28;20098;-35
2022/12/22 12:13:28;;;;;;;1.95;0.45;;;15.10;1.00;;;;;;5071172;28;20040;-40
2022/12/22 12:16:18;;;;;;;2.15;0.45;;;15.10;1.00;;;;;;5071501;28;20052;-38
2022/12/22 12:19:04;;;;;;;1.33;0.68;;;15.10;1.00;;;;;;5071593;28;20074;-32
2022/12/22 12:21:41;;;;;;;5.00;0.90;;;15.10;1.00;;;;;;5071538;28;20066;-37
2022/12/22 12:24:52;;;;;;;2.92;0.57;;;15.10;1.00;;;;;;5071117;28;20059;-36
2022/12/22 12:27:50;;;;;;;2.75;0.32;;;15.10;1.00;;;;;;4989743;28;20053;-33
2022/12/22 12:30:19;;;;;;;3.38;0.90;;;15.10;1.00;;;;;;4989781;28;20050;-34
2022/12/22 12:33:18;;;;;;;2.05;0.70;;;15.00;1.00;;;;;;5058196;28;20119;-37
2022/12/22 12:35:47;;;;;;;3.90;0.95;;;15.00;1.00;;;;;;5071346;28;20052;-38
2022/12/22 12:38:38;;;;;;;2.13;0.55;;;15.10;1.00;;;;;;5071386;28;20044;-37
2022/12/22 12:41:46;;;;;;;1.75;0.50;;;15.10;1.00;;;;;;5071409;28;20041;-36
2022/12/22 12:44:17;;;;;;;2.10;0.70;;;15.10;1.00;;;;;;5070852;28;20049;-35
2022/12/22 12:46:49;;;;;;;2.75;0.60;;;15.10;1.00;;;;;;5071471;28;20037;-39
2022/12/22 12:49:35;;;;;;;1.75;0.60;;;15.10;1.00;;;;;;5070960;28;20094;-36
2022/12/22 12:52:06;;;;;;;3.03;0.75;;;15.10;1.00;;;;;;5071368;28;20400;-35
2022/12/22 12:54:46;;;;;;;1.67;0.50;;;15.10;1.00;;;;;;5070742;28;20491;-35
2022/12/22 12:57:29;;;;;;;1.67;0.52;;;15.10;1.00;;;;;;5071331;28;20041;-39
2022/12/22 12:59:58;;;;;;;3.37;0.83;;;15.10;1.00;;;;;;5071219;28;20443;-40
2022/12/22 13:02:36;;;;;;;2.40;0.50;;;15.10;1.00;;;;;;5070951;28;20087;-35
2022/12/22 13:05:07;;;;;;;1.55;0.40;;;15.10;1.00;;;;;;5071300;28;20041;-37
2022/12/22 13:08:08;;;;;;;1.35;0.43;;;15.00;1.00;;;;;;5071216;28;20124;-36
2022/12/22 13:10:59;;;;;;;1.70;0.50;;;15.00;1.00;;;;;;5070978;28;20045;-34
2022/12/22 13:13:40;;;;;;;4.95;0.77;;;15.10;1.00;;;;;;5070425;28;20491;-33
2022/12/22 13:16:11;;;;;;;1.17;0.50;;;15.00;1.00;;;;;;5071019;28;20040;-36
2022/12/22 13:18:45;;;;;;;2.38;0.55;;;15.00;1.00;;;;;;5071313;28;20520;-35
2022/12/22 13:21:26;;;;;;;1.55;0.50;;;15.00;1.00;;;;;;5074688;28;20492;-34
2022/12/22 13:24:20;;;;;;;2.22;0.60;;;15.00;1.00;;;;;;5074148;28;20507;-42
2022/12/22 13:26:55;;;;;;;2.25;0.88;;;15.00;1.00;;;;;;5074609;28;20039;-33
2022/12/22 13:29:28;;;;;;;3.00;0.85;;;15.00;1.00;;;;;;5074338;28;20488;-36
2022/12/22 13:32:14;;;;;;;2.20;0.95;;;15.00;1.00;;;;;;5074357;28;20052;-36
2022/12/22 13:34:51;;;;;;;2.22;0.73;;;15.00;1.00;;;;;;5074199;28;20041;-33
2022/12/22 13:37:45;;;;;;;1.98;0.70;;;15.00;1.00;;;;;;5056470;28;20036;-39
2022/12/22 13:40:20;;;;;;;3.38;0.68;;;15.00;1.00;;;;;;5074093;28;20119;-35
2022/12/22 13:43:03;;;;;;;1.77;0.80;;;15.00;1.00;;;;;;5055856;28;20048;-37
2022/12/22 13:45:51;;;;;;;1.88;0.30;;;15.00;1.00;;;;;;5074179;28;20444;-35
2022/12/22 13:48:40;;;;;;;1.25;0.60;;;15.00;1.00;;;;;;5074095;28;20495;-36
2022/12/22 13:51:21;;;;;;;3.08;0.75;;;15.00;1.00;;;;;;5074049;28;20041;-38
2022/12/22 13:54:00;;;;;;;4.15;0.57;;;14.90;1.00;;;;;;5073687;28;20036;-34
2022/12/22 13:56:44;;;;;;;5.20;0.60;;;14.90;1.00;;;;;;5056005;28;20048;-40
2022/12/22 13:59:32;;;;;;;2.30;0.75;;;14.90;1.00;;;;;;5073794;28;20507;-37
2022/12/22 14:02:08;;;;;;;3.42;0.90;;;14.90;1.00;;;;;;5074021;28;20462;-39
2022/12/22 14:04:36;;;;;;;2.05;0.60;;;14.90;1.00;;;;;;5055698;28;20123;-39
2022/12/22 14:07:18;;;;;;;2.38;0.50;;;14.90;1.00;;;;;;5073896;28;20044;-34
2022/12/22 14:09:49;;;;;;;2.67;0.68;;;14.90;1.00;;;;;;5073618;28;20091;-36
2022/12/22 14:12:20;;;;;;;2.22;0.80;;;14.90;1.00;;;;;;5073365;28;20500;-33
2022/12/22 14:14:49;;;;;;;2.20;0.60;;;14.90;1.00;;;;;;5073317;28;20458;-40
2022/12/22 14:17:26;;;;;;;3.88;0.82;;;14.90;1.00;;;;;;5073599;28;20061;-35
2022/12/22 14:19:56;;;;;;;1.65;0.50;;;14.90;1.00;;;;;;5073423;28;20094;-33
2022/12/22 14:22:28;;;;;;;2.97;0.68;;;14.90;1.00;;;;;;5073290;28;20048;-35
2022/12/22 14:24:59;;;;;;;1.98;0.52;;;14.90;1.00;;;;;;5073200;28;20040;-37
2022/12/22 14:27:35;;;;;;;2.83;0.80;;;14.90;1.00;;;;;;5073403;28;20033;-37
2022/12/22 14:30:07;;;;;;;0.98;0.50;;;14.90;1.00;;;;;;5073488;28;20045;-37
2022/12/22 14:32:39;;;;;;;2.22;0.45;;;14.90;1.00;;;;;;5072742;28;20033;-35
2022/12/22 14:35:21;;;;;;;4.75;1.10;;;14.80;1.00;;;;;;5073135;28;20079;-34
2022/12/22 14:37:49;;;;;;;2.35;0.90;;;14.80;1.00;;;;;;5073090;28;20071;-34
2022/12/22 14:40:32;;;;;;;3.63;0.65;;;14.80;1.00;;;;;;5073298;28;20131;-37
2022/12/22 14:43:02;;;;;;;1.58;0.60;;;14.80;1.00;;;;;;5072694;28;20047;-35
2022/12/22 14:45:28;;;;;;;4.47;0.88;;;14.80;1.00;;;;;;5073029;28;20040;-37
2022/12/22 14:47:57;;;;;;;5.97;1.00;;;14.80;1.00;;;;;;5076046;28;20048;-36
2022/12/22 14:50:26;;;;;;;5.55;1.13;;;14.80;1.00;;;;;;5081033;28;20095;-34
2022/12/22 14:52:56;;;;;;;5.38;1.20;;;14.80;1.00;;;;;;5071986;28;20139;-34
2022/12/22 14:55:25;;;;;;;3.92;1.58;;;14.80;1.00;;;;;;5072606;28;20053;-34
2022/12/22 14:57:57;;;;;;;2.90;0.93;;;14.80;1.00;;;;;;5072759;28;20484;-36
2022/12/22 15:00:29;;;;;;;2.95;0.90;;;14.80;1.00;;;;;;5072635;28;20068;-37
2022/12/22 15:03:21;;;;;;;4.25;0.68;;;14.80;1.00;;;;;;5072433;28;20048;-35
2022/12/22 15:05:48;;;;;;;2.60;1.23;;;14.80;1.00;;;;;;5062257;28;20127;-37
2022/12/22 15:08:35;;;;;;;4.75;0.80;;;14.80;1.00;;;;;;5069454;28;20056;-36
2022/12/22 15:11:10;;;;;;;3.38;0.90;;;14.80;1.00;;;;;;5047822;28;20082;-34
2022/12/22 15:13:37;;;;;;;2.83;1.05;;;14.80;1.00;;;;;;5073122;28;20048;-35
2022/12/22 15:16:04;;;;;;;7.68;2.03;;;14.70;1.00;;;;;;5075692;28;20266;-35
2022/12/22 15:18:32;;;;;;;15.75;3.80;;;14.70;1.00;;;;;;5078325;28;20409;-31
2022/12/22 15:20:58;;;;;;;12.48;4.30;;;14.70;1.00;;;;;;5087444;28;20461;-37
2022/12/22 15:23:25;;;;;;;14.63;4.07;;;14.60;1.00;;;;;;5076014;28;20056;-33
2022/12/22 15:25:52;;;;;;;16.75;5.22;;;14.70;1.00;;;;;;5074150;28;20423;-36
2022/12/22 15:28:19;;;;;;;14.57;4.60;;;14.60;1.00;;;;;;5081621;28;20053;-36
2022/12/22 15:30:45;;;;;;;10.70;4.25;;;14.60;1.00;;;;;;5073477;28;20068;-32
2022/12/22 15:33:15;;;;;;;13.20;3.80;;;14.60;1.00;;;;;;5074417;28;20033;-34
2022/12/22 15:35:43;;;;;;;15.68;3.95;;;14.50;1.00;;;;;;5073657;28;20116;-36
2022/12/22 15:38:16;;;;;;;10.80;4.60;;;14.60;1.00;;;;;;5055444;28;20072;-33
2022/12/22 15:40:43;;;;;;;11.25;3.50;;;14.60;1.00;;;;;;5077847;28;20108;-32
2022/12/22 15:43:11;;;;;;;10.23;3.38;;;14.60;1.00;;;;;;5071361;28;20446;-37
2022/12/22 15:45:58;;;;;;;9.15;3.45;;;14.50;1.00;;;;;;5072718;28;20119;-34
2022/12/22 15:48:28;;;;;;;11.73;3.13;;;14.50;1.00;;;;;;5070807;28;20045;-32
2022/12/22 15:50:56;;;;;;;9.55;3.42;;;14.60;1.00;;;;;;5068000;28;20041;-37
2022/12/22 15:53:22;;;;;;;9.55;3.38;;;14.50;1.00;;;;;;5062123;28;20040;-36
2022/12/22 15:55:53;;;;;;;16.02;2.97;;;14.50;1.00;;;;;;5080591;28;20081;-33
2022/12/22 15:58:26;;;;;;;8.05;3.08;;;14.50;1.00;;;;;;5081606;28;20318;-35
2022/12/22 16:00:52;;;;;;;7.05;2.65;;;14.50;1.00;;;;;;5090060;28;20552;-33
2022/12/22 16:03:19;;;;;;;9.55;2.60;;;14.50;1.00;;;;;;5079053;28;20146;-34
2022/12/22 16:05:46;;;;;;;5.72;2.42;;;14.50;1.00;;;;;;5073342;28;20055;-33
2022/12/22 16:08:16;;;;;;;7.85;2.47;;;14.50;1.00;;;;;;5078436;28;20101;-38
2022/12/22 16:10:45;;;;;;;8.30;2.53;;;14.50;1.00;;;;;;5071596;28;20044;-34
2022/12/22 16:13:14;;;;;;;7.25;2.35;;;14.50;1.00;;;;;;5071450;28;20043;-33
2022/12/22 16:15:41;;;;;;;9.63;2.90;;;14.50;1.00;;;;;;5075814;28;20036;-37
2022/12/22 16:18:11;;;;;;;5.25;2.47;;;14.50;1.00;;;;;;5083335;28;20067;-33
2022/12/22 16:20:42;;;;;;;5.53;2.35;;;14.50;1.00;;;;;;5091700;28;20047;-37
2022/12/22 16:23:15;;;;;;;4.95;2.10;;;14.50;1.00;;;;;;5091379;28;20047;-38
2022/12/22 16:25:44;;;;;;;11.18;2.70;;;14.50;1.00;;;;;;5091811;28;20036;-33
2022/12/22 16:28:19;;;;;;;6.90;1.90;;;14.50;1.00;;;;;;5091561;28;20055;-34
2022/12/22 16:30:46;;;;;;;10.20;2.60;;;14.50;1.00;;;;;;5069839;28;20045;-38
2022/12/22 16:33:14;;;;;;;9.13;3.13;;;14.50;1.00;;;;;;5070127;28;20032;-32
2022/12/22 16:35:41;;;;;;;5.18;2.15;;;14.50;1.00;;;;;;5075725;28;20060;-38
2022/12/22 16:38:08;;;;;;;6.78;2.20;;;14.50;1.00;;;;;;5073870;28;20036;-34
2022/12/22 16:40:47;;;;;;;7.40;1.83;;;14.50;1.00;;;;;;5069956;28;20048;-35
2022/12/22 16:43:28;;;;;;;7.88;2.58;;;14.60;1.00;;;;;;5067405;28;20443;-37
2022/12/22 16:46:16;;;;;;;8.25;2.25;;;14.60;1.00;;;;;;5082657;28;20032;-34
2022/12/22 16:48:52;;;;;;;6.22;2.38;;;14.70;1.00;;;;;;5070778;28;20044;-34
2022/12/22 16:51:24;;;;;;;5.20;2.33;;;14.80;1.00;;;;;;5072341;28;20044;-34
2022/12/22 16:53:51;;;;;;;10.82;2.10;;;14.90;1.00;;;;;;5072450;28;20037;-38
2022/12/22 16:56:22;;;;;;;5.95;1.90;;;15.00;1.00;;;;;;5074885;28;20082;-34